sensor_id;sensor_type;location;lat;lon;timestamp;pressure;altitude;pressure_sealevel;temperature;humidity
23677;BME280;31493;49.058;12.190;2023-03-23T00:00:59;95542.16;;;10.15;80.91
23677;BME280;31493;49.058;12.190;2023-03-23T00:03:27;95544.06;;;10.24;79.61
23677;BME280;31493;49.058;12.190;2023-03-23T00:05:57;95529.09;;;10.16;80.69
23677;BME280;31493;49.058;12.190;2023-03-23T00:08:30;95537.25;;;10.23;79.46
23677;BME280;31493;49.058;12.190;2023-03-23T00:10:59;95547.59;;;10.23;79.45
23677;BME280;31493;49.058;12.190;2023-03-23T00:13:28;95541.56;;;10.22;79.34
23677;BME280;31493;49.058;12.190;2023-03-23T00:15:55;95538.91;;;10.24;78.92
23677;BME280;31493;49.058;12.190;2023-03-23T00:18:23;95546.97;;;10.08;80.34
23677;BME280;31493;49.058;12.190;2023-03-23T00:20:52;95542.75;;;10.07;80.11
23677;BME280;31493;49.058;12.190;2023-03-23T00:23:22;95536.38;;;10.11;79.90
23677;BME280;31493;49.058;12.190;2023-03-23T00:25:52;95537.06;;;10.02;80.15
23677;BME280;31493;49.058;12.190;2023-03-23T00:28:24;95539.78;;;10.12;78.98
23677;BME280;31493;49.058;12.190;2023-03-23T00:30:56;95544.97;;;10.12;78.77
23677;BME280;31493;49.058;12.190;2023-03-23T00:33:24;95534.63;;;10.12;78.87
23677;BME280;31493;49.058;12.190;2023-03-23T00:35:52;95542.09;;;9.92;80.84
23677;BME280;31493;49.058;12.190;2023-03-23T00:38:20;95536.25;;;10.02;79.45
23677;BME280;31493;49.058;12.190;2023-03-23T00:40:47;95531.19;;;10.11;78.77
23677;BME280;31493;49.058;12.190;2023-03-23T00:43:14;95529.50;;;9.88;80.92
23677;BME280;31493;49.058;12.190;2023-03-23T00:45:44;95528.81;;;9.97;79.61
23677;BME280;31493;49.058;12.190;2023-03-23T00:48:15;95531.66;;;10.05;78.96
23677;BME280;31493;49.058;12.190;2023-03-23T00:50:42;95529.78;;;9.96;79.61
23677;BME280;31493;49.058;12.190;2023-03-23T00:53:09;95529.03;;;9.94;79.24
23677;BME280;31493;49.058;12.190;2023-03-23T00:55:36;95521.06;;;9.97;78.98
23677;BME280;31493;49.058;12.190;2023-03-23T00:58:03;95521.88;;;9.98;78.32
23677;BME280;31493;49.058;12.190;2023-03-23T01:00:30;95526.44;;;9.94;78.83
23677;BME280;31493;49.058;12.190;2023-03-23T01:02:58;95524.31;;;9.88;79.21
23677;BME280;31493;49.058;12.190;2023-03-23T01:05:25;95524.34;;;9.99;77.45
23677;BME280;31493;49.058;12.190;2023-03-23T01:07:57;95516.16;;;10.16;75.45
23677;BME280;31493;49.058;12.190;2023-03-23T01:10:25;95521.31;;;10.05;76.08
23677;BME280;31493;49.058;12.190;2023-03-23T01:12:53;95506.53;;;10.18;75.05
23677;BME280;31493;49.058;12.190;2023-03-23T01:15:21;95515.41;;;10.27;73.61
23677;BME280;31493;49.058;12.190;2023-03-23T01:17:48;95512.56;;;10.30;73.56
23677;BME280;31493;49.058;12.190;2023-03-23T01:20:17;95509.97;;;10.19;74.18
23677;BME280;31493;49.058;12.190;2023-03-23T01:22:44;95512.16;;;10.12;74.68
23677;BME280;31493;49.058;12.190;2023-03-23T01:25:12;95504.53;;;10.11;74.66
23677;BME280;31493;49.058;12.190;2023-03-23T01:27:40;95500.78;;;10.15;74.34
23677;BME280;31493;49.058;12.190;2023-03-23T01:30:09;95503.56;;;10.01;75.48
23677;BME280;31493;49.058;12.190;2023-03-23T01:32:38;95499.47;;;10.09;74.29
23677;BME280;31493;49.058;12.190;2023-03-23T01:35:05;95500.53;;;10.18;73.55
23677;BME280;31493;49.058;12.190;2023-03-23T01:37:33;95492.06;;;10.16;73.81
23677;BME280;31493;49.058;12.190;2023-03-23T01:40:02;95500.09;;;10.24;72.94
23677;BME280;31493;49.058;12.190;2023-03-23T01:42:32;95496.41;;;10.15;73.83
23677;BME280;31493;49.058;12.190;2023-03-23T01:45:22;95485.53;;;10.23;73.58
23677;BME280;31493;49.058;12.190;2023-03-23T01:47:54;95486.56;;;10.20;73.25
23677;BME280;31493;49.058;12.190;2023-03-23T01:50:24;95488.19;;;10.21;73.26
23677;BME280;31493;49.058;12.190;2023-03-23T01:52:55;95492.19;;;10.14;73.66
23677;BME280;31493;49.058;12.190;2023-03-23T01:55:26;95488.88;;;10.12;73.82
23677;BME280;31493;49.058;12.190;2023-03-23T01:57:55;95474.31;;;10.22;72.54
23677;BME280;31493;49.058;12.190;2023-03-23T02:00:24;95473.88;;;10.29;71.75
23677;BME280;31493;49.058;12.190;2023-03-23T02:02:52;95475.66;;;10.28;72.94
23677;BME280;31493;49.058;12.190;2023-03-23T02:05:24;95467.19;;;10.26;72.06
23677;BME280;31493;49.058;12.190;2023-03-23T02:07:56;95478.78;;;10.20;72.57
23677;BME280;31493;49.058;12.190;2023-03-23T02:10:29;95463.19;;;10.33;70.46
23677;BME280;31493;49.058;12.190;2023-03-23T02:12:57;95481.06;;;10.47;70.03
23677;BME280;31493;49.058;12.190;2023-03-23T02:15:26;95477.78;;;10.34;70.06
23677;BME280;31493;49.058;12.190;2023-03-23T02:17:59;95486.94;;;10.49;68.70
23677;BME280;31493;49.058;12.190;2023-03-23T02:20:44;95487.88;;;10.48;69.02
23677;BME280;31493;49.058;12.190;2023-03-23T02:26:38;95488.59;;;10.28;70.51
23677;BME280;31493;49.058;12.190;2023-03-23T02:32:24;95485.94;;;10.17;71.55
23677;BME280;31493;49.058;12.190;2023-03-23T02:34:59;95496.91;;;10.20;71.02
23677;BME280;31493;49.058;12.190;2023-03-23T02:37:31;95500.28;;;10.10;71.79
23677;BME280;31493;49.058;12.190;2023-03-23T02:40:02;95512.88;;;10.14;71.96
23677;BME280;31493;49.058;12.190;2023-03-23T02:42:36;95494.50;;;10.06;72.43
23677;BME280;31493;49.058;12.190;2023-03-23T02:45:07;95502.16;;;9.96;73.77
23677;BME280;31493;49.058;12.190;2023-03-23T02:47:36;95488.50;;;10.06;72.42
23677;BME280;31493;49.058;12.190;2023-03-23T02:50:09;95491.81;;;9.96;74.07
23677;BME280;31493;49.058;12.190;2023-03-23T02:52:39;95493.06;;;10.26;70.77
23677;BME280;31493;49.058;12.190;2023-03-23T02:55:08;95496.59;;;10.25;71.20
23677;BME280;31493;49.058;12.190;2023-03-23T02:57:37;95492.94;;;10.28;70.55
23677;BME280;31493;49.058;12.190;2023-03-23T03:00:06;95495.66;;;10.26;70.74
23677;BME280;31493;49.058;12.190;2023-03-23T03:02:36;95492.50;;;10.45;68.92
23677;BME280;31493;49.058;12.190;2023-03-23T03:05:14;95498.34;;;10.47;69.15
23677;BME280;31493;49.058;12.190;2023-03-23T03:07:54;95488.47;;;10.41;69.15
23677;BME280;31493;49.058;12.190;2023-03-23T03:10:26;95487.19;;;10.35;69.67
23677;BME280;31493;49.058;12.190;2023-03-23T03:13:03;95492.00;;;10.29;70.48
23677;BME280;31493;49.058;12.190;2023-03-23T03:15:36;95492.59;;;10.32;70.30
23677;BME280;31493;49.058;12.190;2023-03-23T03:18:09;95496.13;;;10.31;70.32
23677;BME280;31493;49.058;12.190;2023-03-23T03:20:43;95501.88;;;10.23;70.85
23677;BME280;31493;49.058;12.190;2023-03-23T03:23:12;95500.78;;;10.15;71.65
23677;BME280;31493;49.058;12.190;2023-03-23T03:25:43;95493.13;;;10.13;71.45
23677;BME280;31493;49.058;12.190;2023-03-23T03:28:15;95508.75;;;10.12;71.92
23677;BME280;31493;49.058;12.190;2023-03-23T03:30:50;95509.94;;;10.08;72.99
23677;BME280;31493;49.058;12.190;2023-03-23T03:33:20;95498.41;;;10.01;73.04
23677;BME280;31493;49.058;12.190;2023-03-23T03:35:53;95505.44;;;9.99;73.48
23677;BME280;31493;49.058;12.190;2023-03-23T03:38:21;95494.22;;;9.87;75.60
23677;BME280;31493;49.058;12.190;2023-03-23T03:40:48;95493.75;;;9.82;75.45
23677;BME280;31493;49.058;12.190;2023-03-23T03:43:16;95494.00;;;9.79;76.16
23677;BME280;31493;49.058;12.190;2023-03-23T03:45:43;95507.72;;;9.79;76.74
23677;BME280;31493;49.058;12.190;2023-03-23T03:48:11;95504.28;;;9.67;78.07
23677;BME280;31493;49.058;12.190;2023-03-23T03:50:39;95501.00;;;9.65;79.22
23677;BME280;31493;49.058;12.190;2023-03-23T03:53:07;95497.31;;;9.57;80.66
23677;BME280;31493;49.058;12.190;2023-03-23T03:55:35;95501.50;;;9.47;82.20
23677;BME280;31493;49.058;12.190;2023-03-23T03:58:04;95492.88;;;9.35;84.89
23677;BME280;31493;49.058;12.190;2023-03-23T04:00:31;95490.81;;;9.40;83.11
23677;BME280;31493;49.058;12.190;2023-03-23T04:02:58;95490.44;;;9.33;84.03
23677;BME280;31493;49.058;12.190;2023-03-23T04:05:25;95487.78;;;9.46;82.75
23677;BME280;31493;49.058;12.190;2023-03-23T04:07:54;95485.63;;;9.40;83.86
23677;BME280;31493;49.058;12.190;2023-03-23T04:10:29;95483.13;;;9.27;85.66
23677;BME280;31493;49.058;12.190;2023-03-23T04:12:57;95490.63;;;9.30;85.52
23677;BME280;31493;49.058;12.190;2023-03-23T04:15:24;95490.13;;;9.25;86.17
23677;BME280;31493;49.058;12.190;2023-03-23T04:17:51;95477.50;;;9.09;88.96
23677;BME280;31493;49.058;12.190;2023-03-23T04:20:19;95491.31;;;9.21;87.64
23677;BME280;31493;49.058;12.190;2023-03-23T04:22:46;95493.59;;;9.13;88.14
23677;BME280;31493;49.058;12.190;2023-03-23T04:25:16;95494.97;;;9.06;90.75
23677;BME280;31493;49.058;12.190;2023-03-23T04:27:47;95489.41;;;8.99;90.64
23677;BME280;31493;49.058;12.190;2023-03-23T04:30:19;95497.53;;;9.06;88.72
23677;BME280;31493;49.058;12.190;2023-03-23T04:32:47;95479.31;;;8.96;91.29
23677;BME280;31493;49.058;12.190;2023-03-23T04:35:18;95465.34;;;8.99;90.39
23677;BME280;31493;49.058;12.190;2023-03-23T04:37:47;95470.72;;;8.96;89.17
23677;BME280;31493;49.058;12.190;2023-03-23T04:40:15;95472.03;;;9.01;88.11
23677;BME280;31493;49.058;12.190;2023-03-23T04:42:43;95468.38;;;8.93;89.68
23677;BME280;31493;49.058;12.190;2023-03-23T04:45:15;95471.03;;;9.04;86.52
23677;BME280;31493;49.058;12.190;2023-03-23T04:47:48;95465.03;;;9.03;86.37
23677;BME280;31493;49.058;12.190;2023-03-23T04:50:21;95460.06;;;9.00;85.82
23677;BME280;31493;49.058;12.190;2023-03-23T04:52:50;95469.31;;;8.92;87.68
23677;BME280;31493;49.058;12.190;2023-03-23T04:55:18;95464.38;;;8.76;89.26
23677;BME280;31493;49.058;12.190;2023-03-23T04:57:46;95462.09;;;8.84;88.63
23677;BME280;31493;49.058;12.190;2023-03-23T05:00:15;95472.00;;;8.77;89.69
23677;BME280;31493;49.058;12.190;2023-03-23T05:02:44;95460.97;;;8.75;89.35
23677;BME280;31493;49.058;12.190;2023-03-23T05:05:13;95467.03;;;8.87;87.86
23677;BME280;31493;49.058;12.190;2023-03-23T05:07:41;95457.34;;;8.91;87.49
23677;BME280;31493;49.058;12.190;2023-03-23T05:10:10;95462.66;;;9.00;86.88
23677;BME280;31493;49.058;12.190;2023-03-23T05:12:38;95459.63;;;9.06;85.29
23677;BME280;31493;49.058;12.190;2023-03-23T05:15:06;95470.50;;;8.99;86.34
23677;BME280;31493;49.058;12.190;2023-03-23T05:17:35;95462.94;;;8.84;88.21
23677;BME280;31493;49.058;12.190;2023-03-23T05:20:04;95461.66;;;8.66;90.44
23677;BME280;31493;49.058;12.190;2023-03-23T05:22:34;95470.44;;;8.51;93.08
23677;BME280;31493;49.058;12.190;2023-03-23T05:25:02;95466.50;;;8.45;94.38
23677;BME280;31493;49.058;12.190;2023-03-23T05:27:30;95470.34;;;8.40;95.22
23677;BME280;31493;49.058;12.190;2023-03-23T05:29:58;95478.06;;;8.40;95.77
23677;BME280;31493;49.058;12.190;2023-03-23T05:32:26;95472.59;;;8.31;96.74
23677;BME280;31493;49.058;12.190;2023-03-23T05:34:57;95467.56;;;8.30;96.83
23677;BME280;31493;49.058;12.190;2023-03-23T05:37:24;95470.94;;;8.30;96.96
23677;BME280;31493;49.058;12.190;2023-03-23T05:39:52;95486.72;;;8.26;97.68
23677;BME280;31493;49.058;12.190;2023-03-23T05:42:21;95482.41;;;8.26;97.68
23677;BME280;31493;49.058;12.190;2023-03-23T05:44:49;95483.84;;;8.30;96.80
23677;BME280;31493;49.058;12.190;2023-03-23T05:47:16;95475.41;;;8.41;95.40
23677;BME280;31493;49.058;12.190;2023-03-23T05:49:43;95474.78;;;8.50;93.98
23677;BME280;31493;49.058;12.190;2023-03-23T05:52:11;95472.91;;;8.52;93.57
23677;BME280;31493;49.058;12.190;2023-03-23T05:54:39;95464.94;;;8.68;90.68
23677;BME280;31493;49.058;12.190;2023-03-23T05:57:07;95468.72;;;8.75;90.60
23677;BME280;31493;49.058;12.190;2023-03-23T05:59:34;95463.56;;;8.75;89.90
23677;BME280;31493;49.058;12.190;2023-03-23T06:02:01;95473.88;;;8.75;89.80
23677;BME280;31493;49.058;12.190;2023-03-23T06:04:29;95467.88;;;9.11;86.00
23677;BME280;31493;49.058;12.190;2023-03-23T06:06:59;95474.84;;;8.98;87.82
23677;BME280;31493;49.058;12.190;2023-03-23T06:09:29;95469.56;;;9.00;86.22
23677;BME280;31493;49.058;12.190;2023-03-23T06:11:56;95474.97;;;8.97;87.99
23677;BME280;31493;49.058;12.190;2023-03-23T06:14:23;95475.06;;;8.95;88.47
23677;BME280;31493;49.058;12.190;2023-03-23T06:16:51;95470.09;;;9.05;88.08
23677;BME280;31493;49.058;12.190;2023-03-23T06:19:18;95471.03;;;9.28;85.37
23677;BME280;31493;49.058;12.190;2023-03-23T06:21:46;95474.13;;;9.20;86.39
23677;BME280;31493;49.058;12.190;2023-03-23T06:24:12;95474.63;;;9.25;86.44
23677;BME280;31493;49.058;12.190;2023-03-23T06:26:41;95467.75;;;9.37;83.83
23677;BME280;31493;49.058;12.190;2023-03-23T06:29:10;95471.78;;;9.41;84.07
23677;BME280;31493;49.058;12.190;2023-03-23T06:31:39;95468.00;;;9.45;84.13
23677;BME280;31493;49.058;12.190;2023-03-23T06:34:07;95478.47;;;9.43;84.95
23677;BME280;31493;49.058;12.190;2023-03-23T06:36:35;95464.31;;;9.60;83.50
23677;BME280;31493;49.058;12.190;2023-03-23T06:39:04;95464.63;;;9.91;81.68
23677;BME280;31493;49.058;12.190;2023-03-23T06:41:32;95446.69;;;10.68;76.37
23677;BME280;31493;49.058;12.190;2023-03-23T06:44:01;95455.72;;;10.96;74.32
23677;BME280;31493;49.058;12.190;2023-03-23T06:46:28;95454.69;;;10.87;74.89
23677;BME280;31493;49.058;12.190;2023-03-23T06:48:55;95447.75;;;10.88;74.27
23677;BME280;31493;49.058;12.190;2023-03-23T06:51:22;95458.31;;;10.96;76.13
23677;BME280;31493;49.058;12.190;2023-03-23T06:53:50;95454.63;;;10.98;74.55
23677;BME280;31493;49.058;12.190;2023-03-23T06:56:17;95461.38;;;10.90;75.62
23677;BME280;31493;49.058;12.190;2023-03-23T06:58:44;95451.53;;;10.72;75.89
23677;BME280;31493;49.058;12.190;2023-03-23T07:01:13;95461.09;;;11.04;74.90
23677;BME280;31493;49.058;12.190;2023-03-23T07:03:42;95464.03;;;11.11;73.30
23677;BME280;31493;49.058;12.190;2023-03-23T07:06:09;95436.94;;;11.15;73.53
23677;BME280;31493;49.058;12.190;2023-03-23T07:08:37;95458.91;;;10.99;73.94
23677;BME280;31493;49.058;12.190;2023-03-23T07:11:04;95464.44;;;10.95;74.59
23677;BME280;31493;49.058;12.190;2023-03-23T07:13:32;95448.16;;;11.04;73.96
23677;BME280;31493;49.058;12.190;2023-03-23T07:15:59;95464.66;;;11.03;75.09
23677;BME280;31493;49.058;12.190;2023-03-23T07:18:28;95469.50;;;10.85;76.36
23677;BME280;31493;49.058;12.190;2023-03-23T07:20:55;95472.00;;;10.75;76.67
23677;BME280;31493;49.058;12.190;2023-03-23T07:23:22;95464.78;;;11.01;75.10
23677;BME280;31493;49.058;12.190;2023-03-23T07:25:49;95468.19;;;10.91;75.91
23677;BME280;31493;49.058;12.190;2023-03-23T07:28:16;95467.38;;;10.79;78.55
23677;BME280;31493;49.058;12.190;2023-03-23T07:30:44;95463.50;;;10.96;76.07
23677;BME280;31493;49.058;12.190;2023-03-23T07:33:11;95457.03;;;10.79;76.14
23677;BME280;31493;49.058;12.190;2023-03-23T07:35:39;95466.00;;;10.75;76.60
23677;BME280;31493;49.058;12.190;2023-03-23T07:38:07;95456.53;;;10.96;75.69
23677;BME280;31493;49.058;12.190;2023-03-23T07:40:35;95470.31;;;10.86;76.86
23677;BME280;31493;49.058;12.190;2023-03-23T07:43:03;95471.03;;;10.99;77.23
23677;BME280;31493;49.058;12.190;2023-03-23T07:45:30;95468.81;;;10.83;77.67
23677;BME280;31493;49.058;12.190;2023-03-23T07:47:57;95455.03;;;10.94;76.94
23677;BME280;31493;49.058;12.190;2023-03-23T07:50:25;95468.44;;;10.99;76.95
23677;BME280;31493;49.058;12.190;2023-03-23T07:52:55;95479.38;;;10.91;78.11
23677;BME280;31493;49.058;12.190;2023-03-23T07:55:24;95477.75;;;10.68;78.88
23677;BME280;31493;49.058;12.190;2023-03-23T07:57:53;95479.38;;;10.80;79.90
23677;BME280;31493;49.058;12.190;2023-03-23T08:00:21;95485.38;;;11.03;79.92
23677;BME280;31493;49.058;12.190;2023-03-23T08:02:51;95490.13;;;10.87;79.57
23677;BME280;31493;49.058;12.190;2023-03-23T08:05:19;95486.19;;;11.03;78.97
23677;BME280;31493;49.058;12.190;2023-03-23T08:07:47;95491.00;;;11.08;77.65
23677;BME280;31493;49.058;12.190;2023-03-23T08:10:16;95496.94;;;10.88;80.08
23677;BME280;31493;49.058;12.190;2023-03-23T08:12:44;95505.66;;;10.75;81.81
23677;BME280;31493;49.058;12.190;2023-03-23T08:15:14;95504.59;;;10.67;81.78
23677;BME280;31493;49.058;12.190;2023-03-23T08:17:42;95507.88;;;10.80;79.48
23677;BME280;31493;49.058;12.190;2023-03-23T08:20:11;95490.81;;;10.89;79.26
23677;BME280;31493;49.058;12.190;2023-03-23T08:22:40;95496.00;;;10.89;80.76
23677;BME280;31493;49.058;12.190;2023-03-23T08:25:10;95508.25;;;10.87;81.67
23677;BME280;31493;49.058;12.190;2023-03-23T08:27:38;95511.06;;;10.84;81.92
23677;BME280;31493;49.058;12.190;2023-03-23T08:30:10;95509.16;;;10.97;79.72
23677;BME280;31493;49.058;12.190;2023-03-23T08:32:37;95510.31;;;11.04;80.47
23677;BME280;31493;49.058;12.190;2023-03-23T08:35:06;95500.34;;;10.99;79.61
23677;BME280;31493;49.058;12.190;2023-03-23T08:37:33;95503.34;;;11.16;80.24
23677;BME280;31493;49.058;12.190;2023-03-23T08:40:00;95500.19;;;11.12;81.89
23677;BME280;31493;49.058;12.190;2023-03-23T08:42:33;95510.06;;;11.18;81.39
23677;BME280;31493;49.058;12.190;2023-03-23T08:45:02;95488.97;;;11.23;80.81
23677;BME280;31493;49.058;12.190;2023-03-23T08:47:29;95502.88;;;11.22;81.40
23677;BME280;31493;49.058;12.190;2023-03-23T08:49:56;95497.78;;;11.32;81.27
23677;BME280;31493;49.058;12.190;2023-03-23T08:52:23;95503.13;;;11.19;81.91
23677;BME280;31493;49.058;12.190;2023-03-23T08:54:50;95503.78;;;11.32;81.50
23677;BME280;31493;49.058;12.190;2023-03-23T08:57:17;95510.13;;;11.39;80.78
23677;BME280;31493;49.058;12.190;2023-03-23T08:59:45;95516.69;;;11.54;80.24
23677;BME280;31493;49.058;12.190;2023-03-23T09:02:13;95512.50;;;11.42;82.40
23677;BME280;31493;49.058;12.190;2023-03-23T09:04:40;95523.78;;;11.41;82.91
23677;BME280;31493;49.058;12.190;2023-03-23T09:07:08;95523.50;;;11.55;80.67
23677;BME280;31493;49.058;12.190;2023-03-23T09:09:36;95521.28;;;11.51;80.47
23677;BME280;31493;49.058;12.190;2023-03-23T09:12:05;95518.88;;;11.59;80.52
23677;BME280;31493;49.058;12.190;2023-03-23T09:14:32;95514.31;;;11.51;81.42
23677;BME280;31493;49.058;12.190;2023-03-23T09:16:59;95532.19;;;11.66;80.34
23677;BME280;31493;49.058;12.190;2023-03-23T09:19:28;95537.81;;;11.71;81.08
23677;BME280;31493;49.058;12.190;2023-03-23T09:21:55;95539.59;;;11.70;80.71
23677;BME280;31493;49.058;12.190;2023-03-23T09:24:22;95538.41;;;11.74;81.34
23677;BME280;31493;49.058;12.190;2023-03-23T09:26:49;95543.66;;;11.95;79.50
23677;BME280;31493;49.058;12.190;2023-03-23T09:29:16;95541.06;;;11.95;79.70
23677;BME280;31493;49.058;12.190;2023-03-23T09:31:44;95538.09;;;12.21;79.46
23677;BME280;31493;49.058;12.190;2023-03-23T09:34:12;95537.84;;;12.24;78.77
23677;BME280;31493;49.058;12.190;2023-03-23T09:36:42;95524.56;;;12.17;79.87
23677;BME280;31493;49.058;12.190;2023-03-23T09:39:09;95528.72;;;12.29;78.61
23677;BME280;31493;49.058;12.190;2023-03-23T09:41:48;95537.03;;;12.23;78.94
23677;BME280;31493;49.058;12.190;2023-03-23T09:44:25;95528.78;;;12.18;79.91
23677;BME280;31493;49.058;12.190;2023-03-23T09:46:59;95516.22;;;12.44;77.45
23677;BME280;31493;49.058;12.190;2023-03-23T09:49:32;95540.94;;;12.38;80.46
23677;BME280;31493;49.058;12.190;2023-03-23T09:52:04;95520.78;;;12.52;78.11
23677;BME280;31493;49.058;12.190;2023-03-23T09:54:35;95534.97;;;12.48;80.16
23677;BME280;31493;49.058;12.190;2023-03-23T09:57:04;95544.94;;;12.43;81.76
23677;BME280;31493;49.058;12.190;2023-03-23T09:59:42;95535.88;;;12.37;79.53
23677;BME280;31493;49.058;12.190;2023-03-23T10:02:15;95531.47;;;12.28;79.88
23677;BME280;31493;49.058;12.190;2023-03-23T10:04:45;95538.34;;;12.38;80.57
23677;BME280;31493;49.058;12.190;2023-03-23T10:07:16;95544.13;;;12.52;77.83
23677;BME280;31493;49.058;12.190;2023-03-23T10:09:45;95559.34;;;12.56;81.64
23677;BME280;31493;49.058;12.190;2023-03-23T10:12:21;95554.78;;;12.49;81.50
23677;BME280;31493;49.058;12.190;2023-03-23T10:15:00;95561.75;;;12.48;80.60
23677;BME280;31493;49.058;12.190;2023-03-23T10:17:31;95558.03;;;12.41;83.10
23677;BME280;31493;49.058;12.190;2023-03-23T10:20:14;95557.09;;;12.42;82.93
23677;BME280;31493;49.058;12.190;2023-03-23T10:22:50;95544.66;;;12.46;82.34
23677;BME280;31493;49.058;12.190;2023-03-23T10:25:22;95549.16;;;12.44;81.67
23677;BME280;31493;49.058;12.190;2023-03-23T10:27:54;95551.50;;;12.47;83.61
23677;BME280;31493;49.058;12.190;2023-03-23T10:30:29;95554.28;;;12.55;81.55
23677;BME280;31493;49.058;12.190;2023-03-23T10:33:01;95546.28;;;12.68;83.75
23677;BME280;31493;49.058;12.190;2023-03-23T10:35:33;95542.25;;;12.84;81.98
23677;BME280;31493;49.058;12.190;2023-03-23T10:38:09;95553.81;;;13.01;81.62
23677;BME280;31493;49.058;12.190;2023-03-23T10:40:46;95543.38;;;13.22;81.12
23677;BME280;31493;49.058;12.190;2023-03-23T10:43:15;95547.94;;;13.39;81.47
23677;BME280;31493;49.058;12.190;2023-03-23T10:45:45;95545.44;;;13.38;78.42
23677;BME280;31493;49.058;12.190;2023-03-23T10:48:16;95552.03;;;13.42;78.95
23677;BME280;31493;49.058;12.190;2023-03-23T10:50:46;95549.56;;;13.40;78.01
23677;BME280;31493;49.058;12.190;2023-03-23T10:53:18;95545.75;;;13.44;76.53
23677;BME280;31493;49.058;12.190;2023-03-23T10:55:46;95539.34;;;13.58;75.87
23677;BME280;31493;49.058;12.190;2023-03-23T10:58:23;95540.69;;;13.62;78.04
23677;BME280;31493;49.058;12.190;2023-03-23T11:00:50;95547.44;;;13.84;74.91
23677;BME280;31493;49.058;12.190;2023-03-23T11:03:28;95551.13;;;14.01;73.47
23677;BME280;31493;49.058;12.190;2023-03-23T11:06:02;95546.34;;;14.06;73.15
23677;BME280;31493;49.058;12.190;2023-03-23T11:08:33;95552.59;;;14.33;73.86
23677;BME280;31493;49.058;12.190;2023-03-23T11:11:09;95541.63;;;14.48;73.65
23677;BME280;31493;49.058;12.190;2023-03-23T11:13:40;95540.09;;;14.65;72.74
23677;BME280;31493;49.058;12.190;2023-03-23T11:16:09;95529.34;;;14.78;73.28
23677;BME280;31493;49.058;12.190;2023-03-23T11:18:38;95523.72;;;14.83;72.90
23677;BME280;31493;49.058;12.190;2023-03-23T11:21:06;95543.84;;;14.90;72.49
23677;BME280;31493;49.058;12.190;2023-03-23T11:23:37;95526.47;;;15.09;70.85
23677;BME280;31493;49.058;12.190;2023-03-23T11:26:12;95530.88;;;15.36;68.67
23677;BME280;31493;49.058;12.190;2023-03-23T11:28:46;95529.22;;;16.16;65.32
23677;BME280;31493;49.058;12.190;2023-03-23T11:31:16;95533.19;;;15.84;66.26
23677;BME280;31493;49.058;12.190;2023-03-23T11:33:52;95526.03;;;15.58;67.32
23677;BME280;31493;49.058;12.190;2023-03-23T11:36:20;95535.31;;;15.53;67.32
23677;BME280;31493;49.058;12.190;2023-03-23T11:38:54;95540.47;;;15.63;69.17
23677;BME280;31493;49.058;12.190;2023-03-23T11:41:32;95539.00;;;15.50;69.10
23677;BME280;31493;49.058;12.190;2023-03-23T11:44:07;95537.06;;;15.52;72.68
23677;BME280;31493;49.058;12.190;2023-03-23T11:46:42;95532.81;;;15.51;70.65
23677;BME280;31493;49.058;12.190;2023-03-23T11:49:18;95543.13;;;15.53;72.23
23677;BME280;31493;49.058;12.190;2023-03-23T11:51:49;95538.03;;;15.51;70.31
23677;BME280;31493;49.058;12.190;2023-03-23T11:54:25;95538.09;;;15.69;68.61
23677;BME280;31493;49.058;12.190;2023-03-23T11:56:53;95533.31;;;15.82;64.30
23677;BME280;31493;49.058;12.190;2023-03-23T11:59:27;95533.91;;;15.94;62.20
23677;BME280;31493;49.058;12.190;2023-03-23T12:02:00;95544.94;;;15.70;60.76
23677;BME280;31493;49.058;12.190;2023-03-23T12:04:35;95536.91;;;15.81;61.47
23677;BME280;31493;49.058;12.190;2023-03-23T12:07:17;95538.47;;;15.74;61.04
23677;BME280;31493;49.058;12.190;2023-03-23T12:09:54;95537.13;;;15.70;60.95
23677;BME280;31493;49.058;12.190;2023-03-23T12:12:32;95533.69;;;15.70;60.85
23677;BME280;31493;49.058;12.190;2023-03-23T12:15:10;95530.16;;;15.61;60.81
23677;BME280;31493;49.058;12.190;2023-03-23T12:17:47;95542.81;;;15.66;61.30
23677;BME280;31493;49.058;12.190;2023-03-23T12:20:25;95529.88;;;15.64;60.59
23677;BME280;31493;49.058;12.190;2023-03-23T12:23:05;95545.53;;;15.64;60.76
23677;BME280;31493;49.058;12.190;2023-03-23T12:26:12;95550.31;;;15.69;62.30
23677;BME280;31493;49.058;12.190;2023-03-23T12:28:54;95544.47;;;15.57;61.85
23677;BME280;31493;49.058;12.190;2023-03-23T12:31:32;95538.72;;;15.53;61.61
23677;BME280;31493;49.058;12.190;2023-03-23T12:34:06;95538.25;;;15.58;62.37
23677;BME280;31493;49.058;12.190;2023-03-23T12:36:46;95535.63;;;15.68;63.02
23677;BME280;31493;49.058;12.190;2023-03-23T12:39:39;95542.25;;;15.62;62.15
23677;BME280;31493;49.058;12.190;2023-03-23T12:42:18;95544.75;;;15.54;62.86
23677;BME280;31493;49.058;12.190;2023-03-23T12:44:52;95539.53;;;15.54;64.95
23677;BME280;31493;49.058;12.190;2023-03-23T12:47:34;95540.69;;;15.69;65.25
23677;BME280;31493;49.058;12.190;2023-03-23T12:50:05;95532.59;;;15.45;64.58
23677;BME280;31493;49.058;12.190;2023-03-23T12:52:39;95531.47;;;15.29;63.71
23677;BME280;31493;49.058;12.190;2023-03-23T12:55:17;95527.66;;;15.24;63.86
23677;BME280;31493;49.058;12.190;2023-03-23T12:57:53;95548.13;;;15.19;64.57
23677;BME280;31493;49.058;12.190;2023-03-23T13:00:27;95528.66;;;15.13;64.15
23677;BME280;31493;49.058;12.190;2023-03-23T13:03:00;95526.44;;;15.18;64.62
23677;BME280;31493;49.058;12.190;2023-03-23T13:05:40;95528.16;;;15.27;63.97
23677;BME280;31493;49.058;12.190;2023-03-23T13:08:12;95536.22;;;15.34;64.87
23677;BME280;31493;49.058;12.190;2023-03-23T13:10:45;95542.31;;;15.25;64.15
23677;BME280;31493;49.058;12.190;2023-03-23T13:13:18;95533.69;;;15.24;65.19
23677;BME280;31493;49.058;12.190;2023-03-23T13:15:57;95533.09;;;15.30;63.66